sensor_id;sensor_type;location;lat;lon;timestamp;P1;durP1;ratioP1;P2;durP2;ratioP2
28958;SDS011;16066;0.000;0.000;2023-07-02T05:33:49;23.90;;;12.10;;
28958;SDS011;16066;0.000;0.000;2023-07-02T05:36:15;27.60;;;11.20;;
28958;SDS011;16066;0.000;0.000;2023-07-02T05:38:41;20.87;;;11.27;;
28958;SDS011;16066;0.000;0.000;2023-07-02T05:41:06;26.23;;;14.00;;
28958;SDS011;16066;0.000;0.000;2023-07-02T05:43:32;23.50;;;12.63;;
28958;SDS011;16066;0.000;0.000;2023-07-02T05:45:58;25.13;;;13.73;;
28958;SDS011;16066;0.000;0.000;2023-07-02T05:48:25;25.53;;;13.47;;
28958;SDS011;16066;0.000;0.000;2023-07-02T05:50:51;29.17;;;12.97;;
28958;SDS011;16066;0.000;0.000;2023-07-02T05:53:17;25.80;;;13.07;;
28958;SDS011;16066;0.000;0.000;2023-07-02T05:55:42;25.77;;;12.70;;
28958;SDS011;16066;0.000;0.000;2023-07-02T05:58:08;23.40;;;14.07;;
28958;SDS011;16066;0.000;0.000;2023-07-02T06:00:34;28.60;;;13.70;;
28958;SDS011;16066;0.000;0.000;2023-07-02T06:02:59;30.17;;;13.93;;
28958;SDS011;16066;0.000;0.000;2023-07-02T06:05:25;33.50;;;14.13;;
28958;SDS011;16066;0.000;0.000;2023-07-02T06:07:50;27.00;;;12.87;;
28958;SDS011;16066;0.000;0.000;2023-07-02T06:10:16;26.10;;;13.40;;
28958;SDS011;16066;0.000;0.000;2023-07-02T06:12:42;23.00;;;13.10;;
28958;SDS011;16066;0.000;0.000;2023-07-02T06:15:08;27.77;;;13.73;;
28958;SDS011;16066;0.000;0.000;2023-07-02T06:17:34;23.57;;;13.70;;
28958;SDS011;16066;0.000;0.000;2023-07-02T06:19:59;34.80;;;13.03;;
28958;SDS011;16066;0.000;0.000;2023-07-02T06:22:26;24.23;;;13.73;;
28958;SDS011;16066;0.000;0.000;2023-07-02T06:24:52;29.23;;;14.07;;
28958;SDS011;16066;0.000;0.000;2023-07-02T06:27:17;23.23;;;12.40;;
28958;SDS011;16066;0.000;0.000;2023-07-02T06:29:43;20.97;;;12.60;;
28958;SDS011;16066;0.000;0.000;2023-07-02T06:32:08;28.60;;;14.43;;
28958;SDS011;16066;0.000;0.000;2023-07-02T06:34:34;24.73;;;12.97;;
28958;SDS011;16066;0.000;0.000;2023-07-02T06:37:00;32.27;;;15.17;;
28958;SDS011;16066;0.000;0.000;2023-07-02T06:39:25;24.23;;;13.13;;
28958;SDS011;16066;0.000;0.000;2023-07-02T06:41:51;24.20;;;12.83;;
28958;SDS011;16066;0.000;0.000;2023-07-02T06:44:16;23.87;;;11.60;;
28958;SDS011;16066;0.000;0.000;2023-07-02T06:46:42;22.93;;;12.70;;
28958;SDS011;16066;0.000;0.000;2023-07-02T06:49:10;27.23;;;13.60;;
28958;SDS011;16066;0.000;0.000;2023-07-02T06:51:35;24.93;;;12.43;;
28958;SDS011;16066;0.000;0.000;2023-07-02T06:54:01;22.70;;;11.73;;
28958;SDS011;16066;0.000;0.000;2023-07-02T06:56:26;24.87;;;11.80;;
28958;SDS011;16066;0.000;0.000;2023-07-02T06:58:52;20.83;;;11.23;;
28958;SDS011;16066;0.000;0.000;2023-07-02T07:01:17;27.40;;;12.80;;
28958;SDS011;16066;0.000;0.000;2023-07-02T07:03:43;22.23;;;11.77;;
28958;SDS011;16066;0.000;0.000;2023-07-02T07:06:08;25.83;;;11.67;;
28958;SDS011;16066;0.000;0.000;2023-07-02T07:08:36;25.47;;;12.07;;
28958;SDS011;16066;0.000;0.000;2023-07-02T07:11:03;26.90;;;11.43;;
28958;SDS011;16066;0.000;0.000;2023-07-02T07:13:29;21.87;;;12.40;;
28958;SDS011;16066;0.000;0.000;2023-07-02T07:15:54;23.47;;;11.40;;
28958;SDS011;16066;0.000;0.000;2023-07-02T07:18:20;21.77;;;11.97;;
28958;SDS011;16066;0.000;0.000;2023-07-02T07:20:45;23.90;;;12.33;;
28958;SDS011;16066;0.000;0.000;2023-07-02T07:23:11;21.80;;;11.27;;
28958;SDS011;16066;0.000;0.000;2023-07-02T07:25:36;24.10;;;11.10;;
28958;SDS011;16066;0.000;0.000;2023-07-02T07:28:02;20.93;;;12.43;;
28958;SDS011;16066;0.000;0.000;2023-07-02T07:30:27;23.57;;;11.60;;
28958;SDS011;16066;0.000;0.000;2023-07-02T07:32:53;25.40;;;11.60;;
28958;SDS011;16066;0.000;0.000;2023-07-02T07:35:22;21.40;;;11.83;;
28958;SDS011;16066;0.000;0.000;2023-07-02T07:37:48;27.40;;;11.33;;
28958;SDS011;16066;0.000;0.000;2023-07-02T07:40:14;24.73;;;12.33;;
28958;SDS011;16066;0.000;0.000;2023-07-02T07:42:43;28.80;;;11.20;;
28958;SDS011;16066;0.000;0.000;2023-07-02T07:45:09;26.33;;;10.97;;
28958;SDS011;16066;0.000;0.000;2023-07-02T07:47:35;25.00;;;13.03;;
28958;SDS011;16066;0.000;0.000;2023-07-02T07:50:01;24.07;;;11.30;;
28958;SDS011;16066;0.000;0.000;2023-07-02T07:52:27;16.97;;;10.93;;
28958;SDS011;16066;0.000;0.000;2023-07-02T07:54:52;34.00;;;12.60;;
28958;SDS011;16066;0.000;0.000;2023-07-02T07:57:18;25.23;;;11.80;;
28958;SDS011;16066;0.000;0.000;2023-07-02T07:59:44;32.07;;;12.93;;
28958;SDS011;16066;0.000;0.000;2023-07-02T08:02:09;24.80;;;10.13;;
28958;SDS011;16066;0.000;0.000;2023-07-02T08:04:35;26.60;;;11.37;;
28958;SDS011;16066;0.000;0.000;2023-07-02T08:07:00;23.63;;;10.33;;
28958;SDS011;16066;0.000;0.000;2023-07-02T08:09:29;25.63;;;9.87;;
28958;SDS011;16066;0.000;0.000;2023-07-02T08:11:54;24.43;;;10.40;;
28958;SDS011;16066;0.000;0.000;2023-07-02T08:14:20;20.63;;;9.60;;
28958;SDS011;16066;0.000;0.000;2023-07-02T08:16:45;23.50;;;10.13;;
28958;SDS011;16066;0.000;0.000;2023-07-02T08:19:11;23.43;;;9.23;;
28958;SDS011;16066;0.000;0.000;2023-07-02T08:21:37;16.27;;;8.60;;
28958;SDS011;16066;0.000;0.000;2023-07-02T08:24:03;23.53;;;10.70;;
28958;SDS011;16066;0.000;0.000;2023-07-02T08:26:28;17.90;;;9.70;;
28958;SDS011;16066;0.000;0.000;2023-07-02T08:28:54;17.73;;;9.80;;
28958;SDS011;16066;0.000;0.000;2023-07-02T08:31:20;17.03;;;9.70;;
28958;SDS011;16066;0.000;0.000;2023-07-02T08:33:45;21.87;;;10.83;;
28958;SDS011;16066;0.000;0.000;2023-07-02T08:36:11;21.57;;;9.60;;
28958;SDS011;16066;0.000;0.000;2023-07-02T08:38:38;24.73;;;11.40;;
28958;SDS011;16066;0.000;0.000;2023-07-02T08:41:06;23.53;;;11.57;;
28958;SDS011;16066;0.000;0.000;2023-07-02T08:43:32;24.87;;;10.27;;
28958;SDS011;16066;0.000;0.000;2023-07-02T08:45:58;25.70;;;11.63;;
28958;SDS011;16066;0.000;0.000;2023-07-02T08:48:24;21.27;;;10.97;;
28958;SDS011;16066;0.000;0.000;2023-07-02T08:50:51;26.83;;;11.50;;
28958;SDS011;16066;0.000;0.000;2023-07-02T08:53:16;21.00;;;10.37;;
28958;SDS011;16066;0.000;0.000;2023-07-02T08:55:42;27.50;;;11.13;;
28958;SDS011;16066;0.000;0.000;2023-07-02T08:58:07;23.60;;;11.10;;
28958;SDS011;16066;0.000;0.000;2023-07-02T09:00:33;26.30;;;10.80;;
28958;SDS011;16066;0.000;0.000;2023-07-02T09:03:14;21.73;;;9.43;;
28958;SDS011;16066;0.000;0.000;2023-07-02T09:05:52;19.50;;;10.87;;
28958;SDS011;16066;0.000;0.000;2023-07-02T09:08:27;22.10;;;10.57;;
28958;SDS011;16066;0.000;0.000;2023-07-02T09:10:53;20.20;;;10.47;;
28958;SDS011;16066;0.000;0.000;2023-07-02T09:13:29;23.83;;;10.80;;
28958;SDS011;16066;0.000;0.000;2023-07-02T09:15:55;23.33;;;10.70;;
28958;SDS011;16066;0.000;0.000;2023-07-02T09:18:21;18.00;;;10.37;;
28958;SDS011;16066;0.000;0.000;2023-07-02T09:20:50;28.30;;;12.07;;
28958;SDS011;16066;0.000;0.000;2023-07-02T09:23:16;19.90;;;11.17;;
28958;SDS011;16066;0.000;0.000;2023-07-02T09:25:42;23.77;;;11.20;;
28958;SDS011;16066;0.000;0.000;2023-07-02T09:28:14;21.20;;;10.20;;
28958;SDS011;16066;0.000;0.000;2023-07-02T09:30:54;18.50;;;11.23;;
28958;SDS011;16066;0.000;0.000;2023-07-02T09:33:27;27.17;;;12.47;;
28958;SDS011;16066;0.000;0.000;2023-07-02T09:35:54;24.43;;;11.30;;
28958;SDS011;16066;0.000;0.000;2023-07-02T09:38:20;31.47;;;12.30;;
28958;SDS011;16066;0.000;0.000;2023-07-02T09:40:47;18.70;;;10.83;;
28958;SDS011;16066;0.000;0.000;2023-07-02T09:43:15;19.57;;;11.60;;
28958;SDS011;16066;0.000;0.000;2023-07-02T09:45:42;21.70;;;10.80;;
28958;SDS011;16066;0.000;0.000;2023-07-02T09:48:13;22.73;;;10.90;;
28958;SDS011;16066;0.000;0.000;2023-07-02T09:50:45;24.00;;;10.00;;
28958;SDS011;16066;0.000;0.000;2023-07-02T09:53:13;23.53;;;10.90;;
28958;SDS011;16066;0.000;0.000;2023-07-02T09:55:39;22.07;;;11.40;;
28958;SDS011;16066;0.000;0.000;2023-07-02T09:58:06;23.87;;;12.23;;
28958;SDS011;16066;0.000;0.000;2023-07-02T10:00:32;23.57;;;11.80;;
28958;SDS011;16066;0.000;0.000;2023-07-02T10:02:58;25.43;;;11.60;;
28958;SDS011;16066;0.000;0.000;2023-07-02T10:05:26;28.77;;;13.00;;
28958;SDS011;16066;0.000;0.000;2023-07-02T10:07:52;23.33;;;11.13;;
28958;SDS011;16066;0.000;0.000;2023-07-02T10:12:53;33.17;;;12.20;;
28958;SDS011;16066;0.000;0.000;2023-07-02T10:15:28;19.00;;;11.90;;
28958;SDS011;16066;0.000;0.000;2023-07-02T10:17:59;21.37;;;10.40;;
28958;SDS011;16066;0.000;0.000;2023-07-02T10:20:39;22.23;;;12.13;;
28958;SDS011;16066;0.000;0.000;2023-07-02T10:23:06;24.50;;;12.80;;
28958;SDS011;16066;0.000;0.000;2023-07-02T10:25:33;25.17;;;12.10;;
28958;SDS011;16066;0.000;0.000;2023-07-02T10:28:02;23.77;;;11.43;;
28958;SDS011;16066;0.000;0.000;2023-07-02T10:30:42;33.47;;;13.70;;
28958;SDS011;16066;0.000;0.000;2023-07-02T10:33:11;29.07;;;13.93;;
28958;SDS011;16066;0.000;0.000;2023-07-02T10:35:39;31.23;;;13.80;;
28958;SDS011;16066;0.000;0.000;2023-07-02T10:38:24;28.90;;;13.63;;
28958;SDS011;16066;0.000;0.000;2023-07-02T10:40:55;26.17;;;14.40;;
28958;SDS011;16066;0.000;0.000;2023-07-02T10:43:25;27.30;;;13.37;;
28958;SDS011;16066;0.000;0.000;2023-07-02T10:45:52;24.93;;;14.80;;
28958;SDS011;16066;0.000;0.000;2023-07-02T10:48:18;30.33;;;13.83;;
28958;SDS011;16066;0.000;0.000;2023-07-02T10:50:43;30.43;;;14.73;;
28958;SDS011;16066;0.000;0.000;2023-07-02T10:53:14;25.93;;;12.93;;
28958;SDS011;16066;0.000;0.000;2023-07-02T10:55:41;24.40;;;11.73;;
28958;SDS011;16066;0.000;0.000;2023-07-02T10:58:07;24.33;;;12.13;;
28958;SDS011;16066;0.000;0.000;2023-07-02T11:00:52;27.37;;;11.43;;
28958;SDS011;16066;0.000;0.000;2023-07-02T11:03:22;26.10;;;10.90;;
28958;SDS011;16066;0.000;0.000;2023-07-02T11:05:51;30.03;;;12.10;;
28958;SDS011;16066;0.000;0.000;2023-07-02T11:08:18;18.43;;;10.37;;
28958;SDS011;16066;0.000;0.000;2023-07-02T11:10:46;23.70;;;9.60;;
28958;SDS011;16066;0.000;0.000;2023-07-02T11:13:12;20.40;;;9.40;;
28958;SDS011;16066;0.000;0.000;2023-07-02T11:15:38;23.53;;;10.63;;
28958;SDS011;16066;0.000;0.000;2023-07-02T11:18:13;17.20;;;9.10;;
28958;SDS011;16066;0.000;0.000;2023-07-02T11:20:39;28.50;;;9.80;;
28958;SDS011;16066;0.000;0.000;2023-07-02T11:23:22;20.60;;;8.27;;
28958;SDS011;16066;0.000;0.000;2023-07-02T11:25:58;15.07;;;7.97;;
28958;SDS011;16066;0.000;0.000;2023-07-02T11:28:29;18.67;;;8.93;;
28958;SDS011;16066;0.000;0.000;2023-07-02T11:30:56;14.43;;;7.33;;
28958;SDS011;16066;0.000;0.000;2023-07-02T11:33:38;18.40;;;8.40;;
28958;SDS011;16066;0.000;0.000;2023-07-02T11:36:05;16.90;;;8.00;;
28958;SDS011;16066;0.000;0.000;2023-07-02T11:38:35;16.40;;;8.13;;
28958;SDS011;16066;0.000;0.000;2023-07-02T11:41:04;17.03;;;7.50;;
28958;SDS011;16066;0.000;0.000;2023-07-02T11:43:30;15.07;;;7.07;;
28958;SDS011;16066;0.000;0.000;2023-07-02T11:45:55;16.33;;;7.57;;
28958;SDS011;16066;0.000;0.000;2023-07-02T11:48:21;12.73;;;7.70;;
28958;SDS011;16066;0.000;0.000;2023-07-02T11:50:46;19.40;;;7.57;;
28958;SDS011;16066;0.000;0.000;2023-07-02T11:53:12;16.53;;;8.37;;
28958;SDS011;16066;0.000;0.000;2023-07-02T11:55:37;14.17;;;7.77;;
28958;SDS011;16066;0.000;0.000;2023-07-02T11:58:03;20.77;;;8.07;;
28958;SDS011;16066;0.000;0.000;2023-07-02T12:00:29;19.33;;;7.57;;
28958;SDS011;16066;0.000;0.000;2023-07-02T12:02:54;14.63;;;7.43;;
28958;SDS011;16066;0.000;0.000;2023-07-02T12:05:20;14.73;;;7.97;;
28958;SDS011;16066;0.000;0.000;2023-07-02T12:07:46;13.97;;;7.67;;
28958;SDS011;16066;0.000;0.000;2023-07-02T12:10:11;17.30;;;8.33;;
28958;SDS011;16066;0.000;0.000;2023-07-02T12:12:37;13.33;;;6.53;;
28958;SDS011;16066;0.000;0.000;2023-07-02T12:15:02;15.50;;;7.83;;
28958;SDS011;16066;0.000;0.000;2023-07-02T12:17:28;14.23;;;6.90;;
28958;SDS011;16066;0.000;0.000;2023-07-02T12:19:54;13.57;;;7.50;;
28958;SDS011;16066;0.000;0.000;2023-07-02T12:22:19;12.73;;;6.87;;
28958;SDS011;16066;0.000;0.000;2023-07-02T12:24:47;10.83;;;6.57;;
28958;SDS011;16066;0.000;0.000;2023-07-02T12:27:14;19.97;;;7.03;;
28958;SDS011;16066;0.000;0.000;2023-07-02T12:29:40;14.17;;;6.83;;
28958;SDS011;16066;0.000;0.000;2023-07-02T12:32:06;13.77;;;7.40;;
28958;SDS011;16066;0.000;0.000;2023-07-02T12:34:32;20.90;;;7.30;;
28958;SDS011;16066;0.000;0.000;2023-07-02T12:36:57;10.70;;;6.50;;
28958;SDS011;16066;0.000;0.000;2023-07-02T12:39:23;15.83;;;7.13;;
28958;SDS011;16066;0.000;0.000;2023-07-02T12:41:48;17.47;;;7.20;;
28958;SDS011;16066;0.000;0.000;2023-07-02T12:44:14;17.60;;;6.53;;
28958;SDS011;16066;0.000;0.000;2023-07-02T12:46:39;11.10;;;6.57;;
28958;SDS011;16066;0.000;0.000;2023-07-02T12:49:05;16.70;;;7.23;;
28958;SDS011;16066;0.000;0.000;2023-07-02T12:51:30;26.30;;;8.13;;
28958;SDS011;16066;0.000;0.000;2023-07-02T12:53:56;15.03;;;7.33;;
28958;SDS011;16066;0.000;0.000;2023-07-02T12:56:21;17.00;;;7.83;;
28958;SDS011;16066;0.000;0.000;2023-07-02T12:58:47;17.33;;;8.40;;
28958;SDS011;16066;0.000;0.000;2023-07-02T13:01:12;23.43;;;8.40;;
28958;SDS011;16066;0.000;0.000;2023-07-02T13:03:38;15.00;;;8.40;;
28958;SDS011;16066;0.000;0.000;2023-07-02T13:06:11;13.47;;;7.57;;
28958;SDS011;16066;0.000;0.000;2023-07-02T13:08:36;19.23;;;9.10;;
28958;SDS011;16066;0.000;0.000;2023-07-02T13:11:01;12.50;;;7.70;;
28958;SDS011;16066;0.000;0.000;2023-07-02T13:13:27;15.60;;;7.90;;
28958;SDS011;16066;0.000;0.000;2023-07-02T13:15:52;15.57;;;7.50;;
28958;SDS011;16066;0.000;0.000;2023-07-02T13:18:18;16.43;;;8.10;;
28958;SDS011;16066;0.000;0.000;2023-07-02T13:20:43;14.30;;;7.03;;
28958;SDS011;16066;0.000;0.000;2023-07-02T13:23:09;15.53;;;8.13;;
28958;SDS011;16066;0.000;0.000;2023-07-02T13:25:34;15.47;;;8.13;;
28958;SDS011;16066;0.000;0.000;2023-07-02T13:28:00;15.87;;;8.13;;
28958;SDS011;16066;0.000;0.000;2023-07-02T13:30:25;16.77;;;8.40;;
28958;SDS011;16066;0.000;0.000;2023-07-02T13:32:53;14.03;;;7.20;;
28958;SDS011;16066;0.000;0.000;2023-07-02T13:35:19;17.63;;;8.13;;
28958;SDS011;16066;0.000;0.000;2023-07-02T13:37:44;14.93;;;7.70;;
28958;SDS011;16066;0.000;0.000;2023-07-02T13:40:10;13.63;;;7.10;;
28958;SDS011;16066;0.000;0.000;2023-07-02T13:42:37;15.97;;;7.40;;
28958;SDS011;16066;0.000;0.000;2023-07-02T13:45:03;13.67;;;6.83;;
28958;SDS011;16066;0.000;0.000;2023-07-02T13:47:30;11.07;;;6.87;;
28958;SDS011;16066;0.000;0.000;2023-07-02T13:49:55;15.00;;;7.10;;
28958;SDS011;16066;0.000;0.000;2023-07-02T13:52:21;16.13;;;7.53;;
28958;SDS011;16066;0.000;0.000;2023-07-02T13:54:46;13.20;;;7.17;;
28958;SDS011;16066;0.000;0.000;2023-07-02T13:57:12;13.73;;;6.60;;
28958;SDS011;16066;0.000;0.000;2023-07-02T13:59:38;15.20;;;7.50;;
28958;SDS011;16066;0.000;0.000;2023-07-02T14:02:04;14.90;;;7.23;;
28958;SDS011;16066;0.000;0.000;2023-07-02T14:04:30;18.03;;;7.70;;
28958;SDS011;16066;0.000;0.000;2023-07-02T14:06:56;11.27;;;6.37;;
28958;SDS011;16066;0.000;0.000;2023-07-02T14:09:22;13.37;;;7.73;;
28958;SDS011;16066;0.000;0.000;2023-07-02T14:11:48;12.83;;;7.13;;
28958;SDS011;16066;0.000;0.000;2023-07-02T14:14:13;14.23;;;6.60;;
28958;SDS011;16066;0.000;0.000;2023-07-02T14:16:38;16.20;;;7.50;;
28958;SDS011;16066;0.000;0.000;2023-07-02T14:19:04;14.33;;;7.83;;
28958;SDS011;16066;0.000;0.000;2023-07-02T14:21:30;21.73;;;8.73;;
28958;SDS011;16066;0.000;0.000;2023-07-02T14:23:56;19.67;;;9.27;;
28958;SDS011;16066;0.000;0.000;2023-07-02T14:26:23;11.90;;;7.40;;
28958;SDS011;16066;0.000;0.000;2023-07-02T14:28:48;15.10;;;8.57;;
28958;SDS011;16066;0.000;0.000;2023-07-02T14:31:14;12.87;;;7.27;;
28958;SDS011;16066;0.000;0.000;2023-07-02T14:33:39;15.83;;;7.40;;
28958;SDS011;16066;0.000;0.000;2023-07-02T14:36:05;18.90;;;8.67;;
28958;SDS011;16066;0.000;0.000;2023-07-02T14:38:32;13.77;;;8.37;;
28958;SDS011;16066;0.000;0.000;2023-07-02T14:40:58;18.70;;;7.63;;
28958;SDS011;16066;0.000;0.000;2023-07-02T14:43:25;17.37;;;6.97;;
28958;SDS011;16066;0.000;0.000;2023-07-02T14:45:53;15.17;;;7.70;;
28958;SDS011;16066;0.000;0.000;2023-07-02T14:48:20;17.83;;;8.53;;
28958;SDS011;16066;0.000;0.000;2023-07-02T14:51:04;16.50;;;7.53;;
28958;SDS011;16066;0.000;0.000;2023-07-02T14:53:30;17.43;;;8.10;;
28958;SDS011;16066;0.000;0.000;2023-07-02T14:55:57;21.40;;;8.77;;
28958;SDS011;16066;0.000;0.000;2023-07-02T14:58:25;16.27;;;9.03;;
28958;SDS011;16066;0.000;0.000;2023-07-02T15:00:52;17.73;;;8.33;;
28958;SDS011;16066;0.000;0.000;2023-07-02T15:03:20;16.00;;;7.77;;
28958;SDS011;16066;0.000;0.000;2023-07-02T15:05:47;14.80;;;8.60;;
28958;SDS011;16066;0.000;0.000;2023-07-02T15:08:13;22.77;;;8.63;;
28958;SDS011;16066;0.000;0.000;2023-07-02T15:10:41;21.83;;;8.73;;
28958;SDS011;16066;0.000;0.000;2023-07-02T15:13:14;16.53;;;8.60;;
28958;SDS011;16066;0.000;0.000;2023-07-02T15:15:41;15.97;;;8.77;;
28958;SDS011;16066;0.000;0.000;2023-07-02T15:18:08;17.27;;;8.03;;
28958;SDS011;16066;0.000;0.000;2023-07-02T15:20:34;21.13;;;8.87;;
28958;SDS011;16066;0.000;0.000;2023-07-02T15:23:01;22.87;;;9.90;;
28958;SDS011;16066;0.000;0.000;2023-07-02T15:25:26;16.37;;;8.20;;
28958;SDS011;16066;0.000;0.000;2023-07-02T15:27:52;15.80;;;7.77;;
28958;SDS011;16066;0.000;0.000;2023-07-02T15:30:18;15.90;;;8.50;;
28958;SDS011;16066;0.000;0.000;2023-07-02T15:32:43;18.53;;;8.60;;
28958;SDS011;16066;0.000;0.000;2023-07-02T15:35:09;19.13;;;9.17;;
28958;SDS011;16066;0.000;0.000;2023-07-02T15:37:35;20.57;;;8.60;;
28958;SDS011;16066;0.000;0.000;2023-07-02T15:40:01;16.70;;;9.33;;
28958;SDS011;16066;0.000;0.000;2023-07-02T15:42:26;17.23;;;8.40;;
28958;SDS011;16066;0.000;0.000;2023-07-02T15:44:54;22.53;;;9.50;;
28958;SDS011;16066;0.000;0.000;2023-07-02T15:47:20;17.17;;;8.60;;
28958;SDS011;16066;0.000;0.000;2023-07-02T15:49:47;20.70;;;8.83;;
28958;SDS011;16066;0.000;0.000;2023-07-02T15:52:12;17.47;;;8.70;;
28958;SDS011;16066;0.000;0.000;2023-07-02T15:54:38;23.93;;;9.77;;
28958;SDS011;16066;0.000;0.000;2023-07-02T15:57:03;28.30;;;8.93;;
28958;SDS011;16066;0.000;0.000;2023-07-02T15:59:29;17.80;;;9.00;;
28958;SDS011;16066;0.000;0.000;2023-07-02T16:01:55;18.37;;;8.57;;
28958;SDS011;16066;0.000;0.000;2023-07-02T16:04:20;20.30;;;7.90;;
28958;SDS011;16066;0.000;0.000;2023-07-02T16:06:46;16.40;;;8.60;;
28958;SDS011;16066;0.000;0.000;2023-07-02T16:09:12;16.33;;;9.27;;
28958;SDS011;16066;0.000;0.000;2023-07-02T16:11:37;26.17;;;9.83;;
28958;SDS011;16066;0.000;0.000;2023-07-02T16:14:10;14.40;;;8.23;;
28958;SDS011;16066;0.000;0.000;2023-07-02T16:16:41;16.90;;;8.53;;
28958;SDS011;16066;0.000;0.000;2023-07-02T16:19:08;18.63;;;8.53;;
28958;SDS011;16066;0.000;0.000;2023-07-02T16:21:35;22.63;;;9.03;;
28958;SDS011;16066;0.000;0.000;2023-07-02T16:24:02;18.20;;;9.40;;
28958;SDS011;16066;0.000;0.000;2023-07-02T16:26:29;20.70;;;9.20;;
28958;SDS011;16066;0.000;0.000;2023-07-02T16:28:56;16.80;;;8.57;;
28958;SDS011;16066;0.000;0.000;2023-07-02T16:31:23;18.87;;;9.23;;
28958;SDS011;16066;0.000;0.000;2023-07-02T16:33:48;19.97;;;9.07;;
28958;SDS011;16066;0.000;0.000;2023-07-02T16:36:15;24.47;;;9.10;;
28958;SDS011;16066;0.000;0.000;2023-07-02T16:38:41;15.50;;;7.97;;
28958;SDS011;16066;0.000;0.000;2023-07-02T16:41:08;18.40;;;8.20;;
28958;SDS011;16066;0.000;0.000;2023-07-02T16:43:33;16.03;;;8.37;;
28958;SDS011;16066;0.000;0.000;2023-07-02T16:45:59;22.03;;;9.13;;
28958;SDS011;16066;0.000;0.000;2023-07-02T16:48:25;19.40;;;8.70;;
28958;SDS011;16066;0.000;0.000;2023-07-02T16:50:57;14.53;;;8.77;;
28958;SDS011;16066;0.000;0.000;2023-07-02T16:53:24;20.70;;;9.33;;
28958;SDS011;16066;0.000;0.000;2023-07-02T16:55:49;18.00;;;8.83;;
28958;SDS011;16066;0.000;0.000;2023-07-02T16:58:15;18.63;;;8.67;;
28958;SDS011;16066;0.000;0.000;2023-07-02T17:00:40;18.83;;;10.30;;
28958;SDS011;16066;0.000;0.000;2023-07-02T17:03:06;15.90;;;7.87;;
28958;SDS011;16066;0.000;0.000;2023-07-02T17:05:32;19.13;;;9.47;;
28958;SDS011;16066;0.000;0.000;2023-07-02T17:07:57;15.30;;;8.63;;
28958;SDS011;16066;0.000;0.000;2023-07-02T17:10:23;15.30;;;8.80;;
28958;SDS011;16066;0.000;0.000;2023-07-02T17:12:48;19.70;;;8.87;;
28958;SDS011;16066;0.000;0.000;2023-07-02T17:15:14;23.53;;;9.27;;
28958;SDS011;16066;0.000;0.000;2023-07-02T17:17:40;17.57;;;8.00;;
28958;SDS011;16066;0.000;0.000;2023-07-02T17:20:06;15.03;;;9.03;;
28958;SDS011;16066;0.000;0.000;2023-07-02T17:22:32;19.90;;;9.40;;
28958;SDS011;16066;0.000;0.000;2023-07-02T17:24:58;22.20;;;9.73;;
28958;SDS011;16066;0.000;0.000;2023-07-02T17:27:26;18.60;;;9.73;;
28958;SDS011;16066;0.000;0.000;2023-07-02T17:29:54;17.17;;;9.33;;
28958;SDS011;16066;0.000;0.000;2023-07-02T17:32:21;19.90;;;8.73;;
28958;SDS011;16066;0.000;0.000;2023-07-02T17:34:48;18.33;;;8.67;;
28958;SDS011;16066;0.000;0.000;2023-07-02T17:37:13;19.20;;;10.60;;
28958;SDS011;16066;0.000;0.000;2023-07-02T17:39:41;18.00;;;8.20;;
28958;SDS011;16066;0.000;0.000;2023-07-02T17:42:08;20.50;;;9.37;;
28958;SDS011;16066;0.000;0.000;2023-07-02T17:44:36;16.93;;;9.23;;
28958;SDS011;16066;0.000;0.000;2023-07-02T17:47:04;17.07;;;9.30;;
28958;SDS011;16066;0.000;0.000;2023-07-02T17:49:32;20.40;;;9.60;;
28958;SDS011;16066;0.000;0.000;2023-07-02T17:52:00;16.73;;;8.43;;
28958;SDS011;16066;0.000;0.000;2023-07-02T17:54:26;21.67;;;9.57;;
28958;SDS011;16066;0.000;0.000;2023-07-02T17:56:57;20.33;;;9.10;;
28958;SDS011;16066;0.000;0.000;2023-07-02T17:59:22;16.97;;;9.17;;
28958;SDS011;16066;0.000;0.000;2023-07-02T18:01:51;21.90;;;9.10;;
28958;SDS011;16066;0.000;0.000;2023-07-02T18:04:17;15.93;;;9.17;;
28958;SDS011;16066;0.000;0.000;2023-07-02T18:06:45;25.30;;;9.77;;
28958;SDS011;16066;0.000;0.000;2023-07-02T18:09:14;19.80;;;8.57;;
28958;SDS011;16066;0.000;0.000;2023-07-02T18:11:40;15.47;;;8.80;;
28958;SDS011;16066;0.000;0.000;2023-07-02T18:14:06;17.83;;;9.03;;
28958;SDS011;16066;0.000;0.000;2023-07-02T18:16:32;16.40;;;8.53;;
28958;SDS011;16066;0.000;0.000;2023-07-02T18:18:58;16.17;;;8.20;;
28958;SDS011;16066;0.000;0.000;2023-07-02T18:21:24;16.33;;;9.70;;
28958;SDS011;16066;0.000;0.000;2023-07-02T18:23:50;21.57;;;9.57;;
28958;SDS011;16066;0.000;0.000;2023-07-02T18:26:15;26.67;;;10.17;;
28958;SDS011;16066;0.000;0.000;2023-07-02T18:28:41;16.33;;;8.53;;
28958;SDS011;16066;0.000;0.000;2023-07-02T18:31:07;22.03;;;9.30;;
28958;SDS011;16066;0.000;0.000;2023-07-02T18:33:33;20.43;;;9.77;;
28958;SDS011;16066;0.000;0.000;2023-07-02T18:35:58;17.20;;;9.93;;
28958;SDS011;16066;0.000;0.000;2023-07-02T18:38:24;22.20;;;9.90;;
28958;SDS011;16066;0.000;0.000;2023-07-02T18:40:58;22.27;;;9.57;;
28958;SDS011;16066;0.000;0.000;2023-07-02T18:43:28;18.00;;;9.47;;
28958;SDS011;16066;0.000;0.000;2023-07-02T18:45:53;22.70;;;10.47;;
28958;SDS011;16066;0.000;0.000;2023-07-02T18:48:19;20.87;;;9.80;;
28958;SDS011;16066;0.000;0.000;2023-07-02T18:50:45;17.73;;;10.20;;
28958;SDS011;16066;0.000;0.000;2023-07-02T18:53:11;22.63;;;10.10;;
28958;SDS011;16066;0.000;0.000;2023-07-02T18:55:36;20.00;;;9.57;;
28958;SDS011;16066;0.000;0.000;2023-07-02T18:58:02;21.40;;;9.37;;
28958;SDS011;16066;0.000;0.000;2023-07-02T19:00:27;18.70;;;9.70;;
28958;SDS011;16066;0.000;0.000;2023-07-02T19:02:53;20.77;;;10.70;;
28958;SDS011;16066;0.000;0.000;2023-07-02T19:05:18;21.50;;;10.53;;
28958;SDS011;16066;0.000;0.000;2023-07-02T19:07:44;17.63;;;10.27;;
28958;SDS011;16066;0.000;0.000;2023-07-02T19:10:10;23.43;;;11.00;;
28958;SDS011;16066;0.000;0.000;2023-07-02T19:12:36;29.27;;;11.47;;
28958;SDS011;16066;0.000;0.000;2023-07-02T19:15:01;21.93;;;9.70;;
28958;SDS011;16066;0.000;0.000;2023-07-02T19:17:28;22.07;;;10.00;;
28958;SDS011;16066;0.000;0.000;2023-07-02T19:19:54;23.03;;;10.10;;
28958;SDS011;16066;0.000;0.000;2023-07-02T19:22:19;23.53;;;10.37;;
28958;SDS011;16066;0.000;0.000;2023-07-02T19:24:45;18.80;;;10.77;;
28958;SDS011;16066;0.000;0.000;2023-07-02T19:27:12;25.77;;;9.50;;
28958;SDS011;16066;0.000;0.000;2023-07-02T19:29:39;20.67;;;9.50;;
28958;SDS011;16066;0.000;0.000;2023-07-02T19:32:05;19.17;;;9.97;;
28958;SDS011;16066;0.000;0.000;2023-07-02T19:34:32;24.83;;;10.27;;
28958;SDS011;16066;0.000;0.000;2023-07-02T19:36:58;18.57;;;10.37;;
28958;SDS011;16066;0.000;0.000;2023-07-02T19:39:23;16.33;;;8.63;;
28958;SDS011;16066;0.000;0.000;2023-07-02T19:41:49;21.00;;;10.10;;
28958;SDS011;16066;0.000;0.000;2023-07-02T19:44:15;23.30;;;9.93;;
28958;SDS011;16066;0.000;0.000;2023-07-02T19:46:42;22.53;;;10.40;;
28958;SDS011;16066;0.000;0.000;2023-07-02T19:49:09;20.47;;;9.60;;
28958;SDS011;16066;0.000;0.000;2023-07-02T19:51:39;21.27;;;10.07;;
28958;SDS011;16066;0.000;0.000;2023-07-02T19:54:05;25.17;;;10.20;;
28958;SDS011;16066;0.000;0.000;2023-07-02T19:56:31;24.57;;;10.20;;
28958;SDS011;16066;0.000;0.000;2023-07-02T19:58:57;23.07;;;10.27;;
28958;SDS011;16066;0.000;0.000;2023-07-02T20:01:23;22.57;;;9.70;;
28958;SDS011;16066;0.000;0.000;2023-07-02T20:03:49;19.47;;;9.53;;
28958;SDS011;16066;0.000;0.000;2023-07-02T20:06:16;24.77;;;9.77;;
28958;SDS011;16066;0.000;0.000;2023-07-02T20:08:44;19.70;;;9.60;;
28958;SDS011;16066;0.000;0.000;2023-07-02T20:11:10;24.30;;;9.80;;
28958;SDS011;16066;0.000;0.000;2023-07-02T20:13:36;26.10;;;9.10;;
28958;SDS011;16066;0.000;0.000;2023-07-02T20:16:01;21.37;;;9.43;;